Capitol Logistics 911

Operating for DHL



EDDK
Cologne Bonn Airport
Cologne, DE
EHAM
Schiphol International Airport
Amsterdam, NL

Activity Log

Date Flight Route Aircraft Duration
02/08/2022 CPX911 WYP5F WYP P64 SONEB P55 RKN RKN2A A30F 0h 53m
09/03/2021 CPX949 WYP P64 SONEB P55 RKN B738 0h 50m

Route Details

Aircraft Information
Group: European Fleet
Types: A30F,A31F,B738
Route Data
Demand: V
Distance: 124nm
Duration: 1h 05m
Recm'd Route: WYP5F WYP P64 SONEB P55 RKN RKN2A
Origin Wx: EDDK 272220Z AUTO 31005KT 280V340 CAVOK 10/04 Q1023 NOSIG
Dest. Wx: EHAM 272225Z 30008KT 9999 FEW030TCU 12/09 Q1022 NOSIG
Notes:

Financial History
Total Freight: 77,523lbs
Average Load: 38,762lbs/flt
Fuel Used: 13,787lbs
Avg. Fuel Used: 6,894lbs/flt
Fuel Expense: $7,698
Avg. Fuel Expense: $3,849
Avg. Fuel Cost: $0.59/lbs
Total Gross Income: $158,224
Pilot Pay: $428
Total Expenses: $25,750
Total Revenue: $124,554
Average Revenue: $79,112.22